Time;durP1;ratioP1;P1;durP2;ratioP2;P2;SDS_P1;SDS_P2;PMS_P1;PMS_P2;Temp;Humidity;BMP_temperature;BMP_pressure;BME280_temperature;BME280_humidity;BME280_pressure;Samples;Min_cycle;Max_cycle;Signal;HPM_P1;HPM_P2
2022/09/20 00:01:35;;;;;;;;;;;;;;;20.10;57.31;101142.41;5020403;28;4233;-68
2022/09/20 00:04:03;;;;;;;;;;;;;;;20.08;57.33;101148.78;5022373;28;5267;-68
2022/09/20 00:06:31;;;;;;;;;;;;;;;20.07;57.47;101150.19;5022958;28;4066;-69
2022/09/20 00:08:58;;;;;;;;;;;;;;;20.06;57.36;101147.94;5022234;28;4635;-69
2022/09/20 00:11:25;;;;;;;;;;;;;;;20.04;57.56;101151.47;5035834;28;5711;-69
2022/09/20 00:13:52;;;;;;;;;;;;;;;20.06;57.36;101151.56;5042824;28;4128;-69
2022/09/20 00:16:19;;;;;;;;;;;;;;;20.07;57.31;101158.06;5041896;28;5775;-69
2022/09/20 00:18:52;;;;;;;;;;;;;;;20.11;57.20;101154.66;5042863;28;4603;-68
2022/09/20 00:21:19;;;;;;;;;;;;;;;20.04;57.41;101160.09;5039661;28;5613;-68
2022/09/20 00:23:46;;;;;;;;;;;;;;;20.05;57.41;101158.72;5019891;28;4535;-68
2022/09/20 00:26:16;;;;;;;;;;;;;;;20.04;57.50;101157.22;5021708;28;4589;-69
2022/09/20 00:28:42;;;;;;;;;;;;;;;20.04;57.39;101157.22;5019947;28;4133;-69
2022/09/20 00:31:09;;;;;;;;;;;;;;;20.07;57.38;101155.94;5018665;28;4992;-69
2022/09/20 00:36:20;;;;;;;;;;;;;;;20.03;57.49;101161.47;5020419;28;5633;-69
2022/09/20 00:38:46;;;;;;;;;;;;;;;20.04;57.41;101162.97;5021641;28;4421;-69
2022/09/20 00:41:13;;;;;;;;;;;;;;;20.05;57.31;101160.84;5022291;28;4177;-69
2022/09/20 00:43:40;;;;;;;;;;;;;;;20.01;57.38;101161.38;5021946;28;4320;-69
2022/09/20 00:46:18;;;;;;;;;;;;;;;20.02;57.20;101164.97;5021040;28;6274;-68
2022/09/20 00:48:45;;;;;;;;;;;;;;;20.02;57.32;101154.25;5022446;28;5497;-69
2022/09/20 00:51:12;;;;;;;;;;;;;;;19.96;57.44;101153.91;5015298;28;4892;-69
2022/09/20 00:53:39;;;;;;;;;;;;;;;19.95;57.37;101155.31;5019163;28;5487;-69
2022/09/20 00:56:07;;;;;;;;;;;;;;;19.96;57.54;101162.53;5033498;28;5532;-69
2022/09/20 00:58:36;;;;;;;;;;;;;;;19.95;57.59;101163.94;5017540;28;4157;-69
2022/09/20 01:01:02;;;;;;;;;;;;;;;19.95;57.43;101169.69;5035496;28;4798;-69
2022/09/20 01:03:30;;;;;;;;;;;;;;;19.94;57.50;101165.31;5021227;28;4719;-68
2022/09/20 01:05:56;;;;;;;;;;;;;;;19.93;57.52;101160.94;5019679;28;5697;-69
2022/09/20 01:08:24;;;;;;;;;;;;;;;19.94;57.53;101171.06;5034242;28;4527;-69
2022/09/20 01:10:50;;;;;;;;;;;;;;;19.92;57.45;101165.19;5017590;28;4183;-69
2022/09/20 01:13:17;;;;;;;;;;;;;;;19.90;57.49;101165.09;5033816;28;5678;-69
2022/09/20 01:15:43;;;;;;;;;;;;;;;19.93;57.43;101169.56;5019618;28;4806;-69
2022/09/20 01:18:10;;;;;;;;;;;;;;;20.02;57.15;101162.88;5014963;28;4172;-69
2022/09/20 01:20:37;;;;;;;;;;;;;;;19.96;57.35;101173.31;5029910;28;6357;-69
2022/09/20 01:23:22;;;;;;;;;;;;;;;19.95;57.44;101166.81;5017105;28;5485;-69
2022/09/20 01:26:07;;;;;;;;;;;;;;;19.94;57.41;101170.31;5020110;28;4231;-69
2022/09/20 01:28:34;;;;;;;;;;;;;;;19.93;57.51;101169.56;5031680;28;4184;-69
2022/09/20 01:31:17;;;;;;;;;;;;;;;19.92;57.50;101175.94;5034160;28;5236;-69
2022/09/20 01:33:45;;;;;;;;;;;;;;;19.88;57.48;101173.59;5053041;28;4279;-69
2022/09/20 01:36:12;;;;;;;;;;;;;;;19.93;57.52;101175.31;5036183;28;4209;-69
2022/09/20 01:38:42;;;;;;;;;;;;;;;19.91;57.34;101172.34;5048742;28;4157;-69
2022/09/20 01:41:16;;;;;;;;;;;;;;;19.89;57.50;101169.34;5039421;28;5243;-68
2022/09/20 01:43:57;;;;;;;;;;;;;;;19.92;57.39;101168.06;5038937;28;4255;-68
2022/09/20 01:46:27;;;;;;;;;;;;;;;19.91;57.33;101172.34;5053731;28;4309;-68
2022/09/20 01:48:55;;;;;;;;;;;;;;;19.92;57.24;101167.34;5038693;28;4262;-68
2022/09/20 01:51:28;;;;;;;;;;;;;;;19.94;57.29;101181.81;5050089;28;4215;-68
2022/09/20 01:54:00;;;;;;;;;;;;;;;19.90;57.32;101182.31;5052068;28;5292;-69
2022/09/20 01:56:38;;;;;;;;;;;;;;;19.90;57.39;101179.47;5052960;28;4160;-69
2022/09/20 01:59:22;;;;;;;;;;;;;;;19.89;57.30;101183.72;5054251;28;4143;-68
2022/09/20 02:01:53;;;;;;;;;;;;;;;19.88;57.36;101193.72;5039024;28;5472;-69
2022/09/20 02:04:28;;;;;;;;;;;;;;;19.90;57.41;101182.31;5036076;28;4165;-69
2022/09/20 02:07:13;;;;;;;;;;;;;;;19.88;57.43;101190.84;5054419;28;4225;-68
2022/09/20 02:09:55;;;;;;;;;;;;;;;19.89;57.28;101192.34;5038547;28;4349;-69
2022/09/20 02:12:24;;;;;;;;;;;;;;;19.88;57.35;101196.59;5046790;28;4209;-69
2022/09/20 02:15:05;;;;;;;;;;;;;;;19.87;57.50;101189.38;5038877;28;4188;-69
2022/09/20 02:17:33;;;;;;;;;;;;;;;19.98;56.97;101193.53;5038939;28;5453;-68
2022/09/20 02:20:02;;;;;;;;;;;;;;;19.93;57.22;101198.31;5051437;28;5353;-68
2022/09/20 02:22:28;;;;;;;;;;;;;;;20.00;56.87;101200.13;5038140;28;4186;-69
2022/09/20 02:25:14;;;;;;;;;;;;;;;19.95;57.06;101201.31;5039364;28;5463;-69
2022/09/20 02:27:59;;;;;;;;;;;;;;;19.93;57.14;101189.69;5039040;28;4033;-69
2022/09/20 02:30:43;;;;;;;;;;;;;;;19.97;56.88;101187.00;5035996;28;4367;-68
2022/09/20 02:33:11;;;;;;;;;;;;;;;20.00;56.78;101191.50;5052222;28;4080;-69
2022/09/20 02:35:38;;;;;;;;;;;;;;;20.01;56.83;101187.25;5043289;28;4061;-68
2022/09/20 02:38:14;;;;;;;;;;;;;;;19.99;56.85;101201.50;5036716;28;4131;-69
2022/09/20 02:40:50;;;;;;;;;;;;;;;19.98;56.85;101202.91;5038269;28;3998;-69
2022/09/20 02:43:20;;;;;;;;;;;;;;;19.96;56.94;101197.03;5038605;28;5037;-69
2022/09/20 02:45:52;;;;;;;;;;;;;;;19.98;56.98;101199.28;5052723;28;3942;-68
2022/09/20 02:48:20;;;;;;;;;;;;;;;19.99;56.87;101200.75;5037142;28;4196;-69
2022/09/20 02:50:53;;;;;;;;;;;;;;;20.02;56.71;101194.50;5038120;28;4125;-68
2022/09/20 02:53:38;;;;;;;;;;;;;;;19.99;56.95;101201.50;5050031;28;4078;-68
2022/09/20 02:56:12;;;;;;;;;;;;;;;19.97;57.06;101204.25;5036261;28;4083;-69
2022/09/20 02:58:56;;;;;;;;;;;;;;;19.97;57.01;101203.53;5052785;28;4111;-68
2022/09/20 03:01:25;;;;;;;;;;;;;;;19.96;57.05;101202.78;5053870;28;4219;-69
2022/09/20 03:03:57;;;;;;;;;;;;;;;19.96;57.05;101208.53;5036524;28;4097;-69
2022/09/20 03:06:27;;;;;;;;;;;;;;;19.95;56.96;101207.06;5052437;28;4269;-68
2022/09/20 03:08:59;;;;;;;;;;;;;;;19.96;56.96;101208.53;5052857;28;4376;-68
2022/09/20 03:11:31;;;;;;;;;;;;;;;19.96;57.04;101217.16;5035196;28;4187;-68
2022/09/20 03:14:04;;;;;;;;;;;;;;;19.96;56.96;101214.28;5036621;28;4096;-69
2022/09/20 03:16:49;;;;;;;;;;;;;;;19.87;57.31;101215.22;5053198;28;4127;-68
2022/09/20 03:19:22;;;;;;;;;;;;;;;19.93;56.96;101214.78;5038085;28;4149;-68
2022/09/20 03:21:58;;;;;;;;;;;;;;;19.95;56.95;101221.44;5051696;28;5255;-69
2022/09/20 03:24:38;;;;;;;;;;;;;;;19.94;56.95;101228.53;5038117;28;6270;-68
2022/09/20 03:27:23;;;;;;;;;;;;;;;19.94;56.99;101222.78;5038116;28;3996;-68
2022/09/20 03:29:49;;;;;;;;;;;;;;;19.95;56.95;101223.53;5037090;28;5363;-69
2022/09/20 03:32:25;;;;;;;;;;;;;;;19.97;56.93;101229.38;5035664;28;4197;-68
2022/09/20 03:35:05;;;;;;;;;;;;;;;19.96;56.88;101245.16;5036958;28;4178;-69
2022/09/20 03:37:54;;;;;;;;;;;;;;;19.96;56.80;101234.41;5039218;28;4147;-68
2022/09/20 03:40:39;;;;;;;;;;;;;;;19.96;56.92;101234.41;5049024;28;4146;-68
2022/09/20 03:43:17;;;;;;;;;;;;;;;19.96;56.82;101233.66;5034379;28;4352;-68
2022/09/20 03:45:52;;;;;;;;;;;;;;;19.93;56.92;101229.94;5037886;28;4032;-69
2022/09/20 03:48:18;;;;;;;;;;;;;;;19.91;56.91;101232.69;5052399;28;5357;-69
2022/09/20 03:50:53;;;;;;;;;;;;;;;19.83;57.15;101240.88;5035805;28;4253;-68
2022/09/20 03:53:40;;;;;;;;;;;;;;;19.83;57.30;101235.13;5052342;28;4226;-69
2022/09/20 03:56:12;;;;;;;;;;;;;;;19.82;57.27;101240.13;5052715;28;6331;-68
2022/09/20 03:58:57;;;;;;;;;;;;;;;19.83;57.29;101240.88;5050423;28;5285;-69
2022/09/20 04:01:44;;;;;;;;;;;;;;;19.83;57.19;101238.00;5034667;28;4156;-69
2022/09/20 04:04:24;;;;;;;;;;;;;;;19.82;57.36;101242.25;5050353;28;4136;-68
2022/09/20 04:07:04;;;;;;;;;;;;;;;19.81;57.26;101244.41;5052980;28;4149;-68
2022/09/20 04:09:46;;;;;;;;;;;;;;;19.81;57.32;101250.13;5048442;28;4172;-69
2022/09/20 04:12:26;;;;;;;;;;;;;;;19.81;57.36;101253.00;5046649;28;4166;-69
2022/09/20 04:15:11;;;;;;;;;;;;;;;19.83;57.21;101252.34;5013977;28;5239;-69
2022/09/20 04:17:40;;;;;;;;;;;;;;;19.86;57.08;101251.09;5037754;28;4254;-69
2022/09/20 04:20:12;;;;;;;;;;;;;;;19.90;57.08;101251.31;5049742;28;5209;-68
2022/09/20 04:22:38;;;;;;;;;;;;;;;19.88;56.92;101248.31;5037184;28;4202;-69
2022/09/20 04:25:18;;;;;;;;;;;;;;;19.82;57.23;101250.88;5051965;28;4149;-68
2022/09/20 04:27:46;;;;;;;;;;;;;;;19.79;57.19;101252.13;5052377;28;5255;-69
2022/09/20 04:30:16;;;;;;;;;;;;;;;19.78;57.27;101244.91;5053867;28;4205;-69
2022/09/20 04:32:46;;;;;;;;;;;;;;;19.90;56.94;101250.56;5040528;28;4151;-69
2022/09/20 04:38:19;;;;;;;;;;;;;;;19.91;56.85;101246.31;5054576;28;4179;-69
2022/09/20 04:40:54;;;;;;;;;;;;;;;19.89;56.86;101246.94;5040498;28;4139;-69
2022/09/20 04:43:36;;;;;;;;;;;;;;;19.92;56.87;101248.53;5055930;28;4147;-69
2022/09/20 04:46:18;;;;;;;;;;;;;;;19.87;56.94;101258.34;5052161;28;5331;-68
2022/09/20 04:48:45;;;;;;;;;;;;;;;19.87;56.86;101252.59;5054503;28;4231;-69
2022/09/20 04:51:22;;;;;;;;;;;;;;;19.85;57.03;101249.59;5040928;28;4200;-69
2022/09/20 04:53:54;;;;;;;;;;;;;;;19.86;56.88;101246.09;5055309;28;5286;-69
2022/09/20 04:56:39;;;;;;;;;;;;;;;19.85;56.94;101263.97;5038564;28;4440;-71
2022/09/20 04:59:09;;;;;;;;;;;;;;;19.87;56.80;101261.22;5039191;28;5216;-68
2022/09/20 05:01:42;;;;;;;;;;;;;;;19.86;56.90;101262.59;5055891;28;4196;-69
2022/09/20 05:04:27;;;;;;;;;;;;;;;19.81;57.02;101260.88;5055219;28;4210;-68
2022/09/20 05:07:12;;;;;;;;;;;;;;;19.79;57.05;101264.41;5040577;28;4252;-68
2022/09/20 05:09:54;;;;;;;;;;;;;;;19.78;57.20;101267.91;5039602;28;4180;-69
2022/09/20 05:12:38;;;;;;;;;;;;;;;19.76;57.19;101276.41;5041128;28;4156;-69
2022/09/20 05:15:10;;;;;;;;;;;;;;;19.77;57.27;101283.63;5037881;28;5249;-68
2022/09/20 05:18:09;;;;;;;;;;;;;;;19.77;57.26;101272.13;5046765;28;4191;-68
2022/09/20 05:21:02;;;;;;;;;;;;;;;19.78;57.17;101293.75;5016842;28;4169;-68
2022/09/20 05:23:32;;;;;;;;;;;;;;;19.75;57.15;101286.41;5036478;28;4043;-68
2022/09/20 05:26:08;;;;;;;;;;;;;;;19.76;57.23;101285.75;5054294;28;4149;-69
2022/09/20 05:28:37;;;;;;;;;;;;;;;19.78;57.16;101294.50;5029066;28;4141;-69
2022/09/20 05:31:07;;;;;;;;;;;;;;;19.76;57.24;101294.38;5044744;28;4317;-69
2022/09/20 05:33:43;;;;;;;;;;;;;;;19.74;57.27;101302.88;5020099;28;4225;-69
2022/09/20 05:36:22;;;;;;;;;;;;;;;19.75;57.16;101297.91;5032749;28;4723;-69
2022/09/20 05:38:53;;;;;;;;;;;;;;;19.75;57.21;101315.88;5017704;28;4154;-69
2022/09/20 05:41:44;;;;;;;;;;;;;;;19.76;57.11;101305.88;5033484;28;4488;-69
2022/09/20 05:44:14;;;;;;;;;;;;;;;19.76;57.15;101308.75;5050494;28;4134;-69
2022/09/20 05:46:48;;;;;;;;;;;;;;;19.74;57.12;101308.63;5049464;28;4298;-68
2022/09/20 05:49:18;;;;;;;;;;;;;;;19.76;57.08;101322.38;5047634;28;4326;-69
2022/09/20 05:51:52;;;;;;;;;;;;;;;19.75;57.12;101318.03;5017242;28;4330;-69
2022/09/20 05:54:28;;;;;;;;;;;;;;;19.74;57.06;101317.25;5021011;28;4131;-69
2022/09/20 05:57:01;;;;;;;;;;;;;;;19.75;57.21;101320.91;5015199;28;4378;-68
2022/09/20 05:59:38;;;;;;;;;;;;;;;19.74;57.11;101328.75;5032057;28;5576;-68
2022/09/20 06:02:20;;;;;;;;;;;;;;;19.73;57.23;101326.53;5019793;28;4144;-69
2022/09/20 06:04:50;;;;;;;;;;;;;;;19.73;57.21;101329.41;5049488;28;4199;-69
2022/09/20 06:07:37;;;;;;;;;;;;;;;19.72;57.27;101336.50;5052032;28;4159;-69
2022/09/20 06:10:23;;;;;;;;;;;;;;;19.75;57.14;101333.13;5016684;28;4174;-68
2022/09/20 06:13:08;;;;;;;;;;;;;;;19.76;57.17;101339.63;5019136;28;4217;-69
2022/09/20 06:15:49;;;;;;;;;;;;;;;19.74;57.19;101333.75;5037662;28;4155;-69
2022/09/20 06:18:15;;;;;;;;;;;;;;;19.75;57.00;101338.13;5039298;28;4181;-68
2022/09/20 06:20:55;;;;;;;;;;;;;;;19.74;56.99;101343.13;5039503;28;4138;-68
2022/09/20 06:23:21;;;;;;;;;;;;;;;19.73;57.20;101346.63;5051522;28;5303;-68
2022/09/20 06:25:49;;;;;;;;;;;;;;;19.72;57.24;101339.38;5037045;28;4350;-68
2022/09/20 06:28:20;;;;;;;;;;;;;;;19.73;57.10;101344.50;5054616;28;4354;-69
2022/09/20 06:30:50;;;;;;;;;;;;;;;19.72;57.18;101348.00;5038107;28;5198;-68
2022/09/20 06:33:16;;;;;;;;;;;;;;;19.72;57.03;101356.63;5043685;28;5485;-69
2022/09/20 06:35:50;;;;;;;;;;;;;;;19.73;57.14;101358.13;5035211;28;5150;-69
2022/09/20 06:41:27;;;;;;;;;;;;;;;19.72;56.99;101350.88;5038094;28;4266;-69
2022/09/20 06:43:57;;;;;;;;;;;;;;;19.70;57.10;101365.91;5040800;28;4073;-69
2022/09/20 06:46:27;;;;;;;;;;;;;;;19.70;57.02;101359.38;5037743;28;4124;-68
2022/09/20 06:48:54;;;;;;;;;;;;;;;19.68;57.20;101368.63;5036738;28;4111;-69
2022/09/20 06:51:21;;;;;;;;;;;;;;;19.69;57.16;101364.38;5038673;28;4043;-69
2022/09/20 06:53:47;;;;;;;;;;;;;;;19.70;57.12;101365.91;5033813;28;4144;-69
2022/09/20 06:56:15;;;;;;;;;;;;;;;19.73;57.04;101372.50;5051739;28;4155;-69
2022/09/20 06:58:41;;;;;;;;;;;;;;;19.71;57.13;101366.63;5039140;28;4191;-68
2022/09/20 07:01:08;;;;;;;;;;;;;;;19.70;57.12;101365.13;5035654;28;4214;-69
2022/09/20 07:03:34;;;;;;;;;;;;;;;19.71;56.98;101366.63;5039461;28;5452;-68
2022/09/20 07:06:03;;;;;;;;;;;;;;;19.70;57.07;101371.63;5038864;28;4202;-67
2022/09/20 07:08:29;;;;;;;;;;;;;;;19.70;57.06;101383.13;5035754;28;4265;-68
2022/09/20 07:10:56;;;;;;;;;;;;;;;19.69;57.11;101380.88;5039886;28;4208;-68
2022/09/20 07:13:22;;;;;;;;;;;;;;;19.71;57.00;101381.00;5039281;28;5225;-69
2022/09/20 07:15:50;;;;;;;;;;;;;;;19.66;57.04;101389.34;5034720;28;4366;-68
2022/09/20 07:18:16;;;;;;;;;;;;;;;19.68;57.02;101394.47;5037426;28;5249;-69
2022/09/20 07:20:43;;;;;;;;;;;;;;;19.66;57.08;101395.09;5038797;28;4378;-69
2022/09/20 07:23:09;;;;;;;;;;;;;;;19.67;57.13;101396.59;5037869;28;5228;-69
2022/09/20 07:25:36;;;;;;;;;;;;;;;19.69;57.00;101398.13;5033375;28;4212;-68
2022/09/20 07:28:02;;;;;;;;;;;;;;;19.67;57.08;101396.59;5038146;28;5200;-68
2022/09/20 07:30:28;;;;;;;;;;;;;;;19.69;57.09;101395.25;5036005;28;5123;-68
2022/09/20 07:32:55;;;;;;;;;;;;;;;19.70;56.95;101399.59;5038030;28;4116;-68
2022/09/20 07:35:21;;;;;;;;;;;;;;;19.67;57.00;101396.59;5039319;28;4178;-69
2022/09/20 07:37:47;;;;;;;;;;;;;;;19.66;57.11;101400.84;5035207;28;5474;-69
2022/09/20 07:40:14;;;;;;;;;;;;;;;19.69;57.04;101403.88;5038098;28;4044;-69
2022/09/20 07:42:41;;;;;;;;;;;;;;;19.67;57.04;101410.94;5037060;28;4109;-69
2022/09/20 07:45:07;;;;;;;;;;;;;;;19.67;57.14;101410.94;5036289;28;4216;-69
2022/09/20 07:47:34;;;;;;;;;;;;;;;19.67;57.00;101405.19;5035799;28;5380;-68
2022/09/20 07:50:01;;;;;;;;;;;;;;;19.66;57.01;101415.22;5038607;28;5343;-67
2022/09/20 07:52:27;;;;;;;;;;;;;;;19.65;57.18;101422.34;5037306;28;4215;-69
2022/09/20 07:54:55;;;;;;;;;;;;;;;19.64;57.14;101420.09;5034858;28;5424;-68
2022/09/20 07:57:21;;;;;;;;;;;;;;;19.64;57.14;101426.59;5033571;28;5458;-68
2022/09/20 07:59:47;;;;;;;;;;;;;;;19.67;56.94;101419.56;5040650;28;5209;-69
2022/09/20 08:02:14;;;;;;;;;;;;;;;19.68;56.92;101426.09;5039841;28;4187;-69
2022/09/20 08:04:40;;;;;;;;;;;;;;;19.65;57.10;101436.72;5043354;28;4125;-69
2022/09/20 08:07:06;;;;;;;;;;;;;;;19.65;57.13;101433.06;5038180;28;4238;-68
2022/09/20 08:09:33;;;;;;;;;;;;;;;19.64;57.04;101440.94;5041698;28;5300;-69
2022/09/20 08:12:00;;;;;;;;;;;;;;;19.67;56.91;101436.06;5041684;28;4221;-68
2022/09/20 08:14:46;;;;;;;;;;;;;;;19.64;57.13;101432.34;5036945;28;5434;-69
2022/09/20 08:17:13;;;;;;;;;;;;;;;19.65;57.06;101435.94;5042746;28;4177;-68
2022/09/20 08:19:39;;;;;;;;;;;;;;;19.65;57.01;101442.47;5041966;28;4213;-68
2022/09/20 08:22:05;;;;;;;;;;;;;;;19.64;57.10;101449.56;5035676;28;4322;-68
2022/09/20 08:24:32;;;;;;;;;;;;;;;19.63;57.15;101448.09;5042408;28;4194;-69
2022/09/20 08:26:58;;;;;;;;;;;;;;;19.64;57.11;101443.81;5040582;28;4377;-69
2022/09/20 08:29:24;;;;;;;;;;;;;;;19.63;57.10;101453.06;5039023;28;5310;-69
2022/09/20 08:31:51;;;;;;;;;;;;;;;19.63;57.08;101450.97;5041097;28;4050;-69
2022/09/20 08:34:18;;;;;;;;;;;;;;;19.67;56.93;101459.78;5040748;28;4143;-68
2022/09/20 08:36:45;;;;;;;;;;;;;;;19.65;57.03;101451.09;5039231;28;4341;-69
2022/09/20 08:39:12;;;;;;;;;;;;;;;19.66;56.96;101452.56;5040760;28;5201;-69
2022/09/20 08:42:11;;;;;;;;;;;;;;;19.66;56.90;101455.44;5042007;28;4215;-71
2022/09/20 08:44:41;;;;;;;;;;;;;;;19.67;57.08;101459.78;5052535;28;4233;-71
2022/09/20 08:47:20;;;;;;;;;;;;;;;19.66;56.95;101454.69;5038236;28;4376;-70
2022/09/20 08:49:47;;;;;;;;;;;;;;;19.68;57.18;101460.56;5040148;28;4258;-70
2022/09/20 08:52:17;;;;;;;;;;;;;;;19.64;57.15;101455.31;5047274;28;4202;-69
2022/09/20 08:54:44;;;;;;;;;;;;;;;19.65;57.17;101453.19;5040601;28;5552;-70
2022/09/20 08:57:13;;;;;;;;;;;;;;;19.64;57.32;101460.31;5041386;28;4144;-62
2022/09/20 08:59:39;;;;;;;;;;;;;;;19.69;57.48;101467.09;5056793;28;4147;-68
2022/09/20 09:02:15;;;;;;;;;;;;;;;19.72;57.78;101460.06;5038578;28;5415;-68
2022/09/20 09:04:43;;;;;;;;;;;;;;;19.72;58.09;101465.81;5040768;28;4203;-68
2022/09/20 09:07:13;;;;;;;;;;;;;;;19.74;58.36;101463.06;5042929;28;4136;-63
2022/09/20 09:09:40;;;;;;;;;;;;;;;19.73;58.83;101468.06;5051034;28;4463;-65
2022/09/20 09:12:12;;;;;;;;;;;;;;;19.70;59.17;101466.47;5040270;28;4290;-67
2022/09/20 09:14:48;;;;;;;;;;;;;;;19.73;58.77;101473.81;5057242;28;5468;-68
2022/09/20 09:17:15;;;;;;;;;;;;;;;19.74;58.76;101480.31;5036397;28;5271;-68
2022/09/20 09:19:45;;;;;;;;;;;;;;;19.79;58.64;101470.53;5042158;28;4012;-67
2022/09/20 09:22:16;;;;;;;;;;;;;;;19.80;58.55;101469.19;5039581;28;4156;-68
2022/09/20 09:24:42;;;;;;;;;;;;;;;19.79;58.58;101465.56;5052270;28;4264;-68
2022/09/20 09:27:16;;;;;;;;;;;;;;;19.82;58.49;101475.03;5036195;28;4209;-68
2022/09/20 09:29:49;;;;;;;;;;;;;;;19.80;58.57;101478.53;5039868;28;4495;-66
2022/09/20 09:32:20;;;;;;;;;;;;;;;19.78;58.49;101474.78;5041437;28;4210;-66
2022/09/20 09:34:46;;;;;;;;;;;;;;;19.79;58.62;101484.91;5041789;28;4112;-64
2022/09/20 09:37:20;;;;;;;;;;;;;;;19.79;58.68;101482.81;5039733;28;4535;-68
2022/09/20 09:40:06;;;;;;;;;;;;;;;19.81;58.35;101482.16;5055739;28;4568;-67
2022/09/20 09:42:32;;;;;;;;;;;;;;;19.84;58.54;101480.91;5018915;28;4152;-68
2022/09/20 09:45:11;;;;;;;;;;;;;;;19.82;58.30;101481.53;5020984;28;4191;-68
2022/09/20 09:47:37;;;;;;;;;;;;;;;19.83;58.32;101488.03;5017195;28;5369;-68
2022/09/20 09:50:04;;;;;;;;;;;;;;;19.85;58.53;101485.28;5020064;28;4217;-68
2022/09/20 09:52:35;;;;;;;;;;;;;;;19.87;58.44;101485.38;5018354;28;4205;-67
2022/09/20 09:55:01;;;;;;;;;;;;;;;19.87;58.46;101494.75;5031633;28;4214;-67
2022/09/20 09:57:33;;;;;;;;;;;;;;;19.88;58.32;101484.00;5020297;28;5451;-67
2022/09/20 10:00:11;;;;;;;;;;;;;;;19.89;58.46;101491.25;5034054;28;4200;-67
2022/09/20 10:02:59;;;;;;;;;;;;;;;19.90;58.35;101486.25;5044253;28;5358;-68
2022/09/20 10:05:37;;;;;;;;;;;;;;;19.89;58.34;101479.75;5040422;28;4136;-68
2022/09/20 10:08:09;;;;;;;;;;;;;;;19.90;58.23;101486.25;5051808;28;4203;-68
2022/09/20 10:10:40;;;;;;;;;;;;;;;19.90;58.53;101480.50;5041478;28;4157;-68
2022/09/20 10:13:18;;;;;;;;;;;;;;;19.90;58.40;101480.50;5051503;28;4126;-68
2022/09/20 10:15:54;;;;;;;;;;;;;;;19.91;58.82;101482.03;5032186;28;6332;-68
2022/09/20 10:18:25;;;;;;;;;;;;;;;19.92;58.64;101472.00;5039928;28;4136;-68
2022/09/20 10:20:58;;;;;;;;;;;;;;;19.92;58.95;101475.63;5040763;28;4139;-68
2022/09/20 10:23:40;;;;;;;;;;;;;;;19.92;59.00;101478.50;5036567;28;4263;-68
2022/09/20 10:26:32;;;;;;;;;;;;;;;19.93;59.10;101482.09;5048976;28;4350;-67
2022/09/20 10:29:02;;;;;;;;;;;;;;;19.93;58.66;101480.00;5039048;28;5346;-67
2022/09/20 10:31:35;;;;;;;;;;;;;;;19.95;58.43;101477.25;5053518;28;5277;-68
2022/09/20 10:34:21;;;;;;;;;;;;;;;19.96;58.29;101478.72;5038122;28;5149;-67
2022/09/20 10:36:52;;;;;;;;;;;;;;;19.97;58.38;101480.22;5039024;28;4139;-67
2022/09/20 10:39:27;;;;;;;;;;;;;;;19.99;58.85;101482.47;5040112;28;4205;-67
2022/09/20 10:45:22;;;;;;;;;;;;;;;19.98;59.66;101475.97;5050121;28;5298;-67
2022/09/20 10:48:11;;;;;;;;;;;;;;;19.99;59.14;101482.47;5038627;28;5509;-67
2022/09/20 10:50:37;;;;;;;;;;;;;;;20.00;59.17;101489.72;5051818;28;4102;-68
2022/09/20 10:53:08;;;;;;;;;;;;;;;19.98;59.38;101492.50;5037481;28;5541;-67
2022/09/20 10:55:46;;;;;;;;;;;;;;;19.98;59.67;101490.34;5055084;28;4030;-68
2022/09/20 10:58:30;;;;;;;;;;;;;;;19.99;59.48;101494.72;5053375;28;4226;-67
2022/09/20 11:01:01;;;;;;;;;;;;;;;20.00;59.36;101490.47;5051245;28;4215;-67
2022/09/20 11:03:32;;;;;;;;;;;;;;;19.97;59.78;101494.59;5019145;28;4386;-67
2022/09/20 11:06:17;;;;;;;;;;;;;;;20.01;59.72;101500.59;5050877;28;5340;-67
2022/09/20 11:08:44;;;;;;;;;;;;;;;20.00;59.66;101484.72;5031890;28;5058;-67
2022/09/20 11:11:20;;;;;;;;;;;;;;;20.02;59.45;101484.84;5038647;28;4168;-67
2022/09/20 11:13:46;;;;;;;;;;;;;;;20.02;59.50;101492.69;5038372;28;4194;-67
2022/09/20 11:16:18;;;;;;;;;;;;;;;20.02;59.59;101487.72;5038671;28;5269;-67
2022/09/20 11:18:47;;;;;;;;;;;;;;;20.02;59.53;101504.97;5037993;28;4028;-67
2022/09/20 11:21:15;;;;;;;;;;;;;;;20.05;59.49;101494.31;5035719;28;5394;-67
2022/09/20 11:23:43;;;;;;;;;;;;;;;20.04;59.49;101505.09;5033817;28;5227;-66
2022/09/20 11:26:11;;;;;;;;;;;;;;;20.04;59.40;101492.81;5053293;28;4260;-67
2022/09/20 11:28:39;;;;;;;;;;;;;;;20.04;59.13;101493.59;5035092;28;4235;-67
2022/09/20 11:31:06;;;;;;;;;;;;;;;20.04;59.16;101493.59;5037502;28;4202;-67
2022/09/20 11:33:37;;;;;;;;;;;;;;;20.05;59.13;101500.81;5047250;28;4693;-67
2022/09/20 11:36:08;;;;;;;;;;;;;;;20.04;59.07;101496.47;5057085;28;4199;-67
2022/09/20 11:38:48;;;;;;;;;;;;;;;20.05;59.06;101497.22;5043501;28;4546;-67
2022/09/20 11:41:21;;;;;;;;;;;;;;;20.05;59.18;101502.97;5057098;28;4192;-67
2022/09/20 11:43:48;;;;;;;;;;;;;;;20.05;59.11;101503.69;5039872;28;4632;-67
2022/09/20 11:46:18;;;;;;;;;;;;;;;20.05;59.05;101502.97;5058153;28;6102;-67
2022/09/20 11:48:46;;;;;;;;;;;;;;;20.03;59.28;101509.31;5042107;28;4188;-67
2022/09/20 11:51:18;;;;;;;;;;;;;;;20.05;59.09;101506.56;5057688;28;4130;-67
2022/09/20 11:53:56;;;;;;;;;;;;;;;20.05;59.32;101506.56;5042549;28;4214;-67
2022/09/20 11:56:26;;;;;;;;;;;;;;;20.05;59.08;101500.81;5054142;28;4289;-67
2022/09/20 11:58:59;;;;;;;;;;;;;;;20.06;59.17;101502.31;5039041;28;4126;-67
2022/09/20 12:01:36;;;;;;;;;;;;;;;20.07;59.17;101506.69;5050301;28;4127;-67
2022/09/20 12:04:05;;;;;;;;;;;;;;;20.07;59.28;101495.19;5055384;28;5136;-67
2022/09/20 12:06:59;;;;;;;;;;;;;;;20.06;59.03;101493.69;5055040;28;4330;-67
2022/09/20 12:09:37;;;;;;;;;;;;;;;20.06;59.23;101501.56;5041808;28;3966;-67
2022/09/20 12:12:13;;;;;;;;;;;;;;;20.06;59.20;101504.44;5056025;28;5457;-67
2022/09/20 12:14:41;;;;;;;;;;;;;;;20.07;58.98;101500.94;5055061;28;5590;-67
2022/09/20 12:17:27;;;;;;;;;;;;;;;20.08;59.03;101502.44;5044369;28;4125;-67
2022/09/20 12:19:53;;;;;;;;;;;;;;;20.07;59.03;101503.81;5042251;28;4033;-67
2022/09/20 12:22:26;;;;;;;;;;;;;;;20.08;58.98;101508.19;5042888;28;5249;-67
2022/09/20 12:25:12;;;;;;;;;;;;;;;20.08;59.14;101508.19;5041901;28;4156;-67
2022/09/20 12:27:38;;;;;;;;;;;;;;;20.08;59.07;101511.06;5040010;28;4044;-67
2022/09/20 12:30:14;;;;;;;;;;;;;;;20.06;59.04;101502.31;5042832;28;5242;-67
2022/09/20 12:32:42;;;;;;;;;;;;;;;20.06;59.09;101508.06;5056776;28;4261;-67
2022/09/20 12:35:27;;;;;;;;;;;;;;;20.09;59.11;101503.94;5036463;28;5245;-67
2022/09/20 12:37:54;;;;;;;;;;;;;;;20.08;58.85;101501.69;5042902;28;4245;-59
2022/09/20 12:40:20;;;;;;;;;;;;;;;20.09;58.92;101503.94;5040013;28;5300;-67
2022/09/20 12:42:52;;;;;;;;;;;;;;;20.08;59.15;101508.19;5039010;28;4225;-67
2022/09/20 12:45:19;;;;;;;;;;;;;;;20.08;58.95;101493.81;5051199;28;4196;-67
2022/09/20 12:47:51;;;;;;;;;;;;;;;20.07;59.24;101506.69;5042375;28;5544;-67
2022/09/20 12:53:03;;;;;;;;;;;;;;;20.08;59.07;101562.06;5051883;28;4315;-67
2022/09/20 12:55:35;;;;;;;;;;;;;;;20.06;59.13;101585.69;5046202;28;4202;-67
2022/09/20 12:58:12;;;;;;;;;;;;;;;20.07;59.17;101592.94;5056733;28;4122;-66
2022/09/20 13:00:58;;;;;;;;;;;;;;;20.08;59.02;101605.94;5041975;28;5516;-67
2022/09/20 13:03:28;;;;;;;;;;;;;;;20.04;59.22;101597.09;5041367;28;4200;-66
2022/09/20 13:06:11;;;;;;;;;;;;;;;20.01;59.25;101601.19;5038234;28;5275;-66
2022/09/20 13:08:52;;;;;;;;;;;;;;;20.00;59.15;101599.72;5041173;28;5183;-66
2022/09/20 13:11:19;;;;;;;;;;;;;;;19.99;59.12;101595.31;5041940;28;4259;-66
2022/09/20 13:13:50;;;;;;;;;;;;;;;20.00;59.23;101601.84;5055426;28;4000;-66
2022/09/20 13:16:25;;;;;;;;;;;;;;;20.00;59.11;101599.72;5038875;28;5830;-66
2022/09/20 13:19:03;;;;;;;;;;;;;;;19.99;59.28;101580.97;5041484;28;4148;-67
2022/09/20 13:21:29;;;;;;;;;;;;;;;19.99;59.19;101592.44;5049201;28;4128;-67
2022/09/20 13:23:56;;;;;;;;;;;;;;;20.02;59.10;101588.34;5056076;28;4010;-67
2022/09/20 13:26:26;;;;;;;;;;;;;;;20.00;59.13;101588.22;5055087;28;5396;-67
2022/09/20 13:28:53;;;;;;;;;;;;;;;19.97;59.15;101595.22;5055259;28;4194;-67
2022/09/20 13:31:19;;;;;;;;;;;;;;;19.98;59.17;101593.09;5037353;28;4126;-67